Time;durP1;ratioP1;P1;durP2;ratioP2;P2;SDS_P1;SDS_P2;PMS_P1;PMS_P2;Temp;Humidity;BMP_temperature;BMP_pressure;BME280_temperature;BME280_humidity;BME280_pressure;Samples;Min_cycle;Max_cycle;Signal;HPM_P1;HPM_P2
2021/10/09 00:00:54;;;;;;;10.65;5.80;;;8.40;99.90;;;;;;5052543;28;19942;-82
2021/10/09 00:03:20;;;;;;;9.02;5.38;;;8.50;99.90;;;;;;5053286;28;20400;-81
2021/10/09 00:05:45;;;;;;;10.20;6.18;;;8.40;99.90;;;;;;5054901;28;20045;-81
2021/10/09 00:08:14;;;;;;;11.73;6.10;;;8.50;99.90;;;;;;5057452;28;20041;-82
2021/10/09 00:10:41;;;;;;;9.90;7.30;;;8.60;99.90;;;;;;5061570;28;20048;-83
2021/10/09 00:13:07;;;;;;;10.38;7.13;;;8.50;99.90;;;;;;5060809;28;20118;-82
2021/10/09 00:15:33;;;;;;;10.15;6.38;;;8.40;99.90;;;;;;5059147;28;20084;-80
2021/10/09 00:18:00;;;;;;;9.85;6.55;;;8.40;99.90;;;;;;5043352;28;20066;-80
2021/10/09 00:20:30;;;;;;;7.57;6.07;;;8.50;99.90;;;;;;5066671;28;20051;-82
2021/10/09 00:22:56;;;;;;;10.05;6.45;;;8.50;99.90;;;;;;5067146;28;20617;-80
2021/10/09 00:25:23;;;;;;;12.20;7.68;;;8.50;99.90;;;;;;5036252;28;20044;-80
2021/10/09 00:27:48;;;;;;;;;;;8.60;99.90;;;;;;5061782;28;20044;-81
2021/10/09 00:30:14;;;;;;;7.45;6.45;;;8.60;99.90;;;;;;5056013;28;19974;-80
2021/10/09 00:32:40;;;;;;;7.20;6.18;;;8.60;99.90;;;;;;5068165;28;20082;-81
2021/10/09 00:35:06;;;;;;;13.45;7.35;;;8.60;99.90;;;;;;5060268;28;20041;-80
2021/10/09 00:37:31;;;;;;;;;;;8.60;99.90;;;;;;5043762;28;20821;-81
2021/10/09 00:39:57;;;;;;;11.48;5.68;;;8.60;99.90;;;;;;5060181;28;19920;-82
2021/10/09 00:42:23;;;;;;;8.82;6.93;;;8.60;99.90;;;;;;5055743;28;20044;-83
2021/10/09 00:44:49;;;;;;;;;;;8.60;99.90;;;;;;5061523;28;20039;-79
2021/10/09 00:47:15;;;;;;;10.27;6.10;;;8.60;99.90;;;;;;5058450;28;19917;-80
2021/10/09 00:49:42;;;;;;;6.85;4.72;;;8.50;99.90;;;;;;5057772;28;20458;-79
2021/10/09 00:52:10;;;;;;;10.13;6.40;;;8.50;99.90;;;;;;5069813;28;20448;-81
2021/10/09 00:54:41;;;;;;;10.20;4.97;;;8.50;99.90;;;;;;5053308;28;20041;-80
2021/10/09 00:57:09;;;;;;;9.45;6.85;;;8.50;99.90;;;;;;5052076;28;20536;-81
2021/10/09 00:59:37;;;;;;;9.30;5.82;;;8.50;99.90;;;;;;5059925;28;20522;-82
2021/10/09 01:02:03;;;;;;;11.20;6.32;;;8.50;99.90;;;;;;5055853;28;20472;-81
2021/10/09 01:04:34;;;;;;;10.35;6.68;;;8.40;99.90;;;;;;5063907;28;20032;-79
2021/10/09 01:07:01;;;;;;;10.43;7.28;;;8.40;99.90;;;;;;5060136;28;20083;-81
2021/10/09 01:09:27;;;;;;;12.80;7.00;;;8.40;99.90;;;;;;5067942;28;20093;-81
2021/10/09 01:11:52;;;;;;;6.70;5.30;;;8.40;99.90;;;;;;5059276;28;20037;-81
2021/10/09 01:14:18;;;;;;;9.30;5.45;;;8.40;99.90;;;;;;5059556;28;20080;-81
2021/10/09 01:16:46;;;;;;;7.57;6.13;;;8.30;99.90;;;;;;5060545;28;20110;-82
2021/10/09 01:19:12;;;;;;;8.75;5.65;;;8.40;99.90;;;;;;5068267;28;20037;-80
2021/10/09 01:21:40;;;;;;;11.70;7.60;;;8.40;99.90;;;;;;5062949;28;20040;-83
2021/10/09 01:24:05;;;;;;;8.43;5.97;;;8.30;99.90;;;;;;5042243;28;20045;-80
2021/10/09 01:26:31;;;;;;;7.55;5.05;;;8.20;99.90;;;;;;5064082;28;20056;-82
2021/10/09 01:28:57;;;;;;;14.68;6.18;;;8.20;99.90;;;;;;5061784;28;20032;-81
2021/10/09 01:31:23;;;;;;;14.13;7.55;;;8.10;99.90;;;;;;5072352;28;20410;-80
2021/10/09 01:33:49;;;;;;;9.77;6.13;;;8.10;99.90;;;;;;5073436;28;20142;-83
2021/10/09 01:36:14;;;;;;;11.90;6.60;;;8.00;99.90;;;;;;5075116;28;20501;-83
2021/10/09 01:38:47;;;;;;;12.95;7.10;;;8.00;99.90;;;;;;5066076;28;20420;-83
2021/10/09 01:41:13;;;;;;;9.32;5.35;;;8.10;99.90;;;;;;5069782;28;20049;-83
2021/10/09 01:43:39;;;;;;;10.48;5.15;;;8.00;99.90;;;;;;5051732;28;20167;-82
2021/10/09 01:46:05;;;;;;;10.25;6.20;;;8.00;99.90;;;;;;5069741;28;20168;-82
2021/10/09 01:48:31;;;;;;;14.88;7.68;;;8.00;99.90;;;;;;5071700;28;20053;-80
2021/10/09 01:50:57;;;;;;;12.18;6.22;;;8.00;99.90;;;;;;5055818;28;20514;-81
2021/10/09 01:53:23;;;;;;;7.00;5.40;;;8.00;99.90;;;;;;5057843;28;20045;-79
2021/10/09 01:55:49;;;;;;;10.23;5.35;;;8.00;99.90;;;;;;5053457;28;20056;-80
2021/10/09 01:58:14;;;;;;;11.55;6.43;;;8.00;99.90;;;;;;5051525;28;20041;-81
2021/10/09 02:00:40;;;;;;;11.68;5.63;;;8.10;99.90;;;;;;5058559;28;20045;-84
2021/10/09 02:03:07;;;;;;;15.85;8.27;;;8.10;99.90;;;;;;5059874;28;20045;-83
2021/10/09 02:05:34;;;;;;;9.07;7.25;;;8.10;99.90;;;;;;5060200;28;20450;-81
2021/10/09 02:08:02;;;;;;;12.32;8.10;;;8.00;99.90;;;;;;5056012;28;20112;-83
2021/10/09 02:10:28;;;;;;;9.20;5.88;;;8.00;99.90;;;;;;5069288;28;20097;-81
2021/10/09 02:12:55;;;;;;;10.25;4.75;;;7.90;99.90;;;;;;5063845;28;20040;-83
2021/10/09 02:25:45;;;;;;;9.80;6.72;;;7.70;99.90;;;;;;5073303;28;20077;-82
2021/10/09 02:28:21;;;;;;;9.05;6.88;;;7.60;99.90;;;;;;5067609;28;20079;-80
2021/10/09 02:30:48;;;;;;;11.45;6.40;;;7.70;99.90;;;;;;5063130;28;20147;-84
2021/10/09 02:33:14;;;;;;;11.00;6.95;;;7.60;99.90;;;;;;5064837;28;20049;-82
2021/10/09 02:35:40;;;;;;;16.67;7.53;;;7.70;99.90;;;;;;5071654;28;20055;-81
2021/10/09 02:38:10;;;;;;;17.27;6.25;;;7.70;99.90;;;;;;5062613;28;20085;-83
2021/10/09 02:40:37;;;;;;;8.55;5.07;;;7.80;99.90;;;;;;5056067;28;20047;-84
2021/10/09 02:43:03;;;;;;;10.02;7.35;;;7.80;99.90;;;;;;5067000;28;20406;-79
2021/10/09 02:45:29;;;;;;;9.10;5.72;;;8.00;99.90;;;;;;5071808;28;20087;-82
2021/10/09 02:48:00;;;;;;;11.60;6.38;;;8.10;99.90;;;;;;5056812;28;20466;-83
2021/10/09 02:50:26;;;;;;;11.90;6.75;;;8.20;99.90;;;;;;5062838;28;20567;-83
2021/10/09 02:52:51;;;;;;;;;;;8.30;99.90;;;;;;5063715;28;20040;-81
2021/10/09 02:55:19;;;;;;;11.10;7.35;;;8.40;99.90;;;;;;5057443;28;19916;-83
2021/10/09 02:57:48;;;;;;;14.32;7.65;;;8.50;99.90;;;;;;5061918;28;20102;-81
2021/10/09 03:00:16;;;;;;;15.23;8.15;;;8.60;99.90;;;;;;5060314;28;20065;-81
2021/10/09 03:02:41;;;;;;;12.65;5.68;;;8.70;99.90;;;;;;5061705;28;20059;-82
2021/10/09 03:05:10;;;;;;;5.50;4.97;;;8.80;99.90;;;;;;5061799;28;20041;-83
2021/10/09 03:07:36;;;;;;;7.65;5.10;;;9.00;99.90;;;;;;5065314;28;20045;-79
2021/10/09 03:10:04;;;;;;;10.88;5.57;;;9.00;99.90;;;;;;5061628;28;20422;-82
2021/10/09 03:12:29;;;;;;;12.63;7.43;;;9.10;99.90;;;;;;5056380;28;20044;-81
2021/10/09 03:14:55;;;;;;;7.75;6.47;;;9.10;99.90;;;;;;5060870;28;20116;-79
2021/10/09 03:17:21;;;;;;;10.90;5.18;;;9.20;99.90;;;;;;5058602;28;20044;-81
2021/10/09 03:19:47;;;;;;;5.28;4.80;;;9.20;99.90;;;;;;5050805;28;20045;-81
2021/10/09 03:22:13;;;;;;;6.80;4.97;;;9.20;99.90;;;;;;5058733;28;20052;-84
2021/10/09 03:24:38;;;;;;;;;;;9.20;99.90;;;;;;5057289;28;20052;-81
2021/10/09 03:27:04;;;;;;;9.90;5.72;;;9.20;99.90;;;;;;5053174;28;19916;-84
2021/10/09 03:29:30;;;;;;;8.50;5.60;;;9.30;99.90;;;;;;5058849;28;20047;-79
2021/10/09 03:31:55;;;;;;;10.50;6.78;;;9.30;99.90;;;;;;5058207;28;20398;-80
2021/10/09 03:34:21;;;;;;;9.07;7.53;;;9.20;99.90;;;;;;5057403;28;20045;-84
2021/10/09 03:36:47;;;;;;;15.68;6.45;;;9.40;99.90;;;;;;5046580;28;20053;-80
2021/10/09 03:39:16;;;;;;;14.32;7.32;;;9.20;99.90;;;;;;5061126;28;20044;-83
2021/10/09 03:41:47;;;;;;;8.00;6.25;;;9.20;99.90;;;;;;5058475;28;20060;-83
2021/10/09 03:44:12;;;;;;;12.02;6.28;;;9.20;99.90;;;;;;5050903;28;20128;-82
2021/10/09 03:46:43;;;;;;;10.60;5.55;;;9.20;99.90;;;;;;5068124;28;20128;-80
2021/10/09 03:49:23;;;;;;;7.07;5.07;;;9.20;99.90;;;;;;5056155;28;20138;-81
2021/10/09 03:54:32;;;;;;;8.48;6.07;;;9.20;99.90;;;;;;5048076;28;20052;-83
2021/10/09 03:56:58;;;;;;;11.60;5.07;;;9.10;99.90;;;;;;5045795;28;20394;-82
2021/10/09 03:59:24;;;;;;;7.80;6.15;;;9.10;99.90;;;;;;5052946;28;20045;-80
2021/10/09 04:01:49;;;;;;;8.98;5.03;;;9.00;99.90;;;;;;5040309;28;20118;-82
2021/10/09 04:04:15;;;;;;;10.90;5.82;;;9.00;99.90;;;;;;5061047;28;20052;-81
2021/10/09 04:06:41;;;;;;;8.48;5.80;;;8.90;99.90;;;;;;5050596;28;20398;-83
2021/10/09 04:09:07;;;;;;;10.60;6.68;;;8.90;99.90;;;;;;5067934;28;20058;-81
2021/10/09 04:11:32;;;;;;;9.27;5.30;;;8.90;99.90;;;;;;5061240;28;20037;-85
2021/10/09 04:13:58;;;;;;;9.65;6.53;;;8.90;99.90;;;;;;5060717;28;20129;-83
2021/10/09 04:16:24;;;;;;;7.40;4.70;;;8.90;99.90;;;;;;5060981;28;20056;-84
2021/10/09 04:18:49;;;;;;;15.15;5.55;;;9.00;99.90;;;;;;5046842;28;20063;-83
2021/10/09 04:21:15;;;;;;;9.38;6.32;;;8.90;99.90;;;;;;5050499;28;20517;-82
2021/10/09 04:23:41;;;;;;;10.57;5.60;;;8.80;99.90;;;;;;5050282;28;20121;-80
2021/10/09 04:26:06;;;;;;;10.40;6.53;;;8.80;99.90;;;;;;5063715;28;20136;-82
2021/10/09 04:28:34;;;;;;;9.77;6.38;;;9.00;99.90;;;;;;5056968;28;20132;-83
2021/10/09 04:31:00;;;;;;;10.30;5.43;;;8.80;99.90;;;;;;5050424;28;20083;-80
2021/10/09 04:33:26;;;;;;;16.58;6.93;;;8.80;99.90;;;;;;5052229;28;20128;-82
2021/10/09 04:35:51;;;;;;;11.85;6.43;;;8.80;99.90;;;;;;5061935;28;20124;-80
2021/10/09 04:38:17;;;;;;;9.27;6.40;;;8.80;99.90;;;;;;5057343;28;20051;-84
2021/10/09 04:40:43;;;;;;;8.15;5.38;;;8.80;99.90;;;;;;5064057;28;20037;-79
2021/10/09 04:43:09;;;;;;;9.95;6.18;;;8.80;99.90;;;;;;5063024;28;20083;-81
2021/10/09 04:45:34;;;;;;;8.00;5.43;;;8.80;99.90;;;;;;5071448;28;20041;-84
2021/10/09 04:48:05;;;;;;;7.25;5.55;;;8.80;99.90;;;;;;5068652;28;20040;-83
2021/10/09 04:50:31;;;;;;;8.68;6.25;;;8.80;99.90;;;;;;5070750;28;20032;-82
2021/10/09 04:52:57;;;;;;;9.77;6.57;;;8.80;99.90;;;;;;5070864;28;20044;-84
2021/10/09 04:55:23;;;;;;;9.52;5.30;;;8.80;99.90;;;;;;5058647;28;20045;-83
2021/10/09 04:57:49;;;;;;;11.60;6.72;;;8.80;99.90;;;;;;5047630;28;20056;-83
2021/10/09 05:00:14;;;;;;;21.40;6.63;;;8.80;99.90;;;;;;5063759;28;20049;-80
2021/10/09 05:02:40;;;;;;;9.77;6.25;;;8.80;99.90;;;;;;5049745;28;20066;-80
2021/10/09 05:05:06;;;;;;;9.40;5.88;;;8.90;99.90;;;;;;5049805;28;20051;-81
2021/10/09 05:07:32;;;;;;;12.57;7.40;;;8.80;99.90;;;;;;5065859;28;20041;-80
2021/10/09 05:09:58;;;;;;;15.45;9.20;;;8.80;99.90;;;;;;5073359;28;20379;-83
2021/10/09 05:12:25;;;;;;;11.40;8.05;;;8.90;99.90;;;;;;5041574;28;20127;-80
2021/10/09 05:14:50;;;;;;;11.88;5.68;;;8.50;99.90;;;;;;5061594;28;20040;-82
2021/10/09 05:17:16;;;;;;;9.63;6.47;;;8.90;99.90;;;;;;5066630;28;20049;-81
2021/10/09 05:19:42;;;;;;;13.98;8.05;;;8.90;99.90;;;;;;5055156;28;20056;-84
2021/10/09 05:22:08;;;;;;;;;;;8.90;99.90;;;;;;5063861;28;20049;-81
2021/10/09 05:24:34;;;;;;;16.90;7.50;;;9.00;99.90;;;;;;5070365;28;20687;-80
2021/10/09 05:27:00;;;;;;;13.82;6.88;;;8.90;99.90;;;;;;5058158;28;20048;-79
2021/10/09 05:29:25;;;;;;;16.20;7.88;;;9.00;99.90;;;;;;5078156;28;20083;-80
2021/10/09 05:31:53;;;;;;;11.85;7.70;;;9.00;99.90;;;;;;5061456;28;20553;-82
2021/10/09 05:34:19;;;;;;;17.50;10.55;;;9.00;99.90;;;;;;5070373;28;20063;-81
2021/10/09 05:36:45;;;;;;;;;;;9.00;99.90;;;;;;5054645;28;20062;-80
2021/10/09 05:39:10;;;;;;;11.85;7.00;;;9.00;99.90;;;;;;5073106;28;19916;-82
2021/10/09 05:41:36;;;;;;;17.10;8.02;;;9.00;99.90;;;;;;5055055;28;20051;-86
2021/10/09 05:44:03;;;;;;;14.68;8.68;;;9.00;99.90;;;;;;5059744;28;20058;-80
2021/10/09 05:46:29;;;;;;;13.82;8.90;;;9.00;99.90;;;;;;5071189;28;20045;-80
2021/10/09 05:48:55;;;;;;;15.15;7.35;;;9.00;99.90;;;;;;5046369;28;20040;-81
2021/10/09 05:51:29;;;;;;;15.10;6.65;;;9.00;99.90;;;;;;5069945;28;20048;-81
2021/10/09 06:42:20;;;;;;;21.40;9.57;;;9.00;99.90;;;;;;5053006;28;20072;-82
2021/10/09 06:44:59;;;;;;;18.50;11.48;;;9.00;99.90;;;;;;5062755;28;20234;-80
2021/10/09 07:00:55;;;;;;;16.70;9.13;;;9.10;99.90;;;;;;5059469;28;20068;-82
2021/10/09 07:03:22;;;;;;;10.93;7.57;;;9.10;99.90;;;;;;5062085;28;20045;-81
2021/10/09 07:05:48;;;;;;;21.63;9.02;;;9.30;99.90;;;;;;5063943;28;20397;-79
2021/10/09 07:08:14;;;;;;;17.88;10.35;;;9.10;99.90;;;;;;5060943;28;20044;-82
2021/10/09 07:10:45;;;;;;;24.65;10.05;;;9.10;99.90;;;;;;5061210;28;20047;-83
2021/10/09 07:13:12;;;;;;;9.10;6.85;;;9.10;99.90;;;;;;5064534;28;20048;-82
2021/10/09 07:15:38;;;;;;;18.50;10.18;;;9.10;99.90;;;;;;5058503;28;20075;-81
2021/10/09 07:18:04;;;;;;;;;;;9.10;99.90;;;;;;5064726;28;20503;-81
2021/10/09 07:20:30;;;;;;;17.38;7.85;;;9.20;99.90;;;;;;5056472;28;19930;-84
2021/10/09 07:22:56;;;;;;;24.40;11.35;;;9.20;99.90;;;;;;5064344;28;20123;-81
2021/10/09 07:25:24;;;;;;;20.77;10.15;;;9.20;99.90;;;;;;5062843;28;20084;-82
2021/10/09 07:27:49;;;;;;;16.20;9.35;;;9.20;99.90;;;;;;5065665;28;20102;-84
2021/10/09 07:30:15;;;;;;;22.38;8.90;;;9.30;99.90;;;;;;5062798;28;20036;-81
2021/10/09 07:32:44;;;;;;;;;;;9.30;99.90;;;;;;5058070;28;20044;-82
2021/10/09 07:35:10;;;;;;;17.80;9.88;;;9.40;99.90;;;;;;5055019;28;19923;-82
2021/10/09 07:37:35;;;;;;;;;;;9.40;99.90;;;;;;5065468;28;20041;-82
2021/10/09 07:40:02;;;;;;;17.70;9.15;;;9.50;99.90;;;;;;5041926;28;19969;-82
2021/10/09 07:42:28;;;;;;;22.63;10.13;;;9.40;99.90;;;;;;5054218;28;20045;-80
2021/10/09 07:44:53;;;;;;;15.60;9.63;;;9.40;99.90;;;;;;5056007;28;20052;-82
2021/10/09 07:47:19;;;;;;;13.90;8.70;;;9.50;99.90;;;;;;5059834;28;20048;-81
2021/10/09 07:49:45;;;;;;;16.98;8.88;;;9.50;99.90;;;;;;5053673;28;20079;-81
2021/10/09 07:52:10;;;;;;;22.67;9.32;;;9.50;99.90;;;;;;5061815;28;20037;-81
2021/10/09 07:54:36;;;;;;;19.35;8.05;;;9.50;99.90;;;;;;5049610;28;20649;-82
2021/10/09 07:57:03;;;;;;;11.40;8.65;;;9.60;99.90;;;;;;5053735;28;20089;-81
2021/10/09 07:59:29;;;;;;;17.98;9.30;;;9.60;99.90;;;;;;5063832;28;20044;-81
2021/10/09 08:01:55;;;;;;;14.07;9.32;;;9.60;99.90;;;;;;5058629;28;20049;-82
2021/10/09 08:04:21;;;;;;;24.83;10.98;;;9.60;99.90;;;;;;5063486;28;20044;-82
2021/10/09 08:06:46;;;;;;;15.45;10.57;;;9.60;99.90;;;;;;5058187;28;20043;-82
2021/10/09 08:09:12;;;;;;;18.27;9.20;;;9.70;99.90;;;;;;5060455;28;20032;-82
2021/10/09 08:11:38;;;;;;;;;;;9.70;99.90;;;;;;5057561;28;20037;-82
2021/10/09 08:14:05;;;;;;;12.75;10.65;;;9.80;99.90;;;;;;5066469;28;20355;-81
2021/10/09 08:16:32;;;;;;;22.75;11.23;;;9.80;99.90;;;;;;5052473;28;20052;-81
2021/10/09 08:19:00;;;;;;;14.70;10.05;;;9.90;99.90;;;;;;5059550;28;20426;-82
2021/10/09 08:21:27;;;;;;;15.30;9.20;;;9.80;99.90;;;;;;5052234;28;20108;-83
2021/10/09 08:26:47;;;;;;;27.00;10.45;;;9.90;99.90;;;;;;5056525;28;20554;-83
2021/10/09 08:40:15;;;;;;;19.48;10.23;;;10.10;99.90;;;;;;5050072;28;20409;-84
2021/10/09 08:42:41;;;;;;;18.70;9.68;;;10.20;99.90;;;;;;5070853;28;20182;-82
2021/10/09 08:45:07;;;;;;;;;;;10.20;99.90;;;;;;5058651;28;20094;-82
2021/10/09 08:47:35;;;;;;;17.52;8.70;;;10.20;99.90;;;;;;5063982;28;19916;-84
2021/10/09 08:50:03;;;;;;;19.10;10.52;;;10.30;99.90;;;;;;5059384;28;20128;-82
2021/10/09 08:52:30;;;;;;;17.23;9.15;;;10.40;99.90;;;;;;5037712;28;20049;-82
2021/10/09 08:54:56;;;;;;;22.08;12.32;;;10.40;99.90;;;;;;5049533;28;20051;-83
2021/10/09 08:57:24;;;;;;;25.38;10.00;;;10.50;99.90;;;;;;5045327;28;20041;-82
2021/10/09 09:00:08;;;;;;;17.20;11.30;;;10.60;99.90;;;;;;5035242;28;20099;-82
2021/10/09 09:02:38;;;;;;;15.93;9.07;;;10.80;99.90;;;;;;5047958;28;20053;-83
2021/10/09 09:05:35;;;;;;;15.05;9.27;;;10.90;99.90;;;;;;5063173;28;20380;-83
2021/10/09 09:08:28;;;;;;;16.08;10.82;;;11.00;99.90;;;;;;5057482;28;20048;-79
2021/10/09 09:41:24;;;;;;;28.33;10.02;;;10.70;99.90;;;;;;5058796;28;20049;-83
2021/10/09 09:43:52;;;;;;;14.73;9.32;;;10.80;99.90;;;;;;5058492;28;20104;-83
2021/10/09 09:46:27;;;;;;;19.40;11.50;;;11.00;99.90;;;;;;5066784;28;20042;-81
2021/10/09 09:48:53;;;;;;;19.70;10.90;;;11.10;99.90;;;;;;5040072;28;20052;-83
2021/10/09 09:51:20;;;;;;;;;;;11.20;99.90;;;;;;5056267;28;20052;-83
2021/10/09 09:53:48;;;;;;;12.52;8.95;;;11.20;99.90;;;;;;5059080;28;20346;-82
2021/10/09 09:56:15;;;;;;;14.05;8.32;;;11.30;99.90;;;;;;5052750;28;20075;-83
2021/10/09 09:58:44;;;;;;;21.65;8.38;;;11.30;99.90;;;;;;5059313;28;20044;-83
2021/10/09 10:01:12;;;;;;;17.38;8.80;;;11.40;99.90;;;;;;5066671;28;20109;-82
2021/10/09 10:03:45;;;;;;;21.70;9.73;;;11.50;99.90;;;;;;5060426;28;20056;-82
2021/10/09 10:06:11;;;;;;;16.85;8.60;;;11.60;99.90;;;;;;5075162;28;20044;-80
2021/10/09 10:08:41;;;;;;;15.13;8.35;;;11.60;99.90;;;;;;5059044;28;20038;-79
2021/10/09 10:11:09;;;;;;;13.60;9.18;;;11.80;99.90;;;;;;5074869;28;20075;-82
2021/10/09 10:13:36;;;;;;;19.05;10.25;;;11.90;99.90;;;;;;5058950;28;20086;-82
2021/10/09 10:16:11;;;;;;;16.50;9.68;;;12.00;99.90;;;;;;5075019;28;20456;-80
2021/10/09 10:18:45;;;;;;;14.32;7.97;;;12.10;99.90;;;;;;5050344;28;20048;-82
2021/10/09 10:21:12;;;;;;;19.60;8.50;;;12.20;99.90;;;;;;5061011;28;20040;-82
2021/10/09 10:23:41;;;;;;;19.05;8.93;;;12.30;99.90;;;;;;5064413;28;20626;-83
2021/10/09 10:26:30;;;;;;;8.77;6.43;;;12.30;99.90;;;;;;5063432;28;20102;-81
2021/10/09 10:28:56;;;;;;;17.73;8.38;;;12.40;99.90;;;;;;5065067;28;20432;-79
2021/10/09 10:31:23;;;;;;;7.30;5.45;;;12.50;99.90;;;;;;5060027;28;20036;-83
2021/10/09 10:33:57;;;;;;;15.52;8.80;;;12.60;99.90;;;;;;5078771;28;20493;-80
2021/10/09 10:36:52;;;;;;;17.50;9.85;;;12.70;99.90;;;;;;5069673;28;20040;-80
2021/10/09 10:39:22;;;;;;;11.27;6.03;;;12.80;99.90;;;;;;5051848;28;20088;-82
2021/10/09 10:42:11;;;;;;;9.75;6.55;;;12.90;99.90;;;;;;5066600;28;20119;-78
2021/10/09 10:45:08;;;;;;;15.43;7.95;;;13.00;99.90;;;;;;5062865;28;20053;-79
2021/10/09 10:47:58;;;;;;;13.25;7.40;;;13.10;99.90;;;;;;5063576;28;20101;-79
2021/10/09 10:51:02;;;;;;;11.40;6.68;;;13.10;99.90;;;;;;5071018;28;20041;-79
2021/10/09 10:54:06;;;;;;;22.05;6.93;;;13.20;99.90;;;;;;5057620;28;20110;-82
2021/10/09 10:56:32;;;;;;;15.70;9.10;;;13.20;99.90;;;;;;5057822;28;20502;-80
2021/10/09 10:59:16;;;;;;;;;;;13.30;99.90;;;;;;5055949;28;20507;-80
2021/10/09 11:01:43;;;;;;;16.52;7.22;;;13.30;99.90;;;;;;5062619;28;20409;-80
2021/10/09 11:04:08;;;;;;;16.90;6.97;;;13.40;99.90;;;;;;5046143;28;20131;-82
2021/10/09 11:06:34;;;;;;;12.27;6.85;;;13.40;99.90;;;;;;5053279;28;20120;-79
2021/10/09 11:09:00;;;;;;;19.05;7.93;;;13.40;99.90;;;;;;5052011;28;20045;-81
2021/10/09 11:11:34;;;;;;;11.35;7.38;;;13.50;99.90;;;;;;5034911;28;20075;-84
2021/10/09 11:14:00;;;;;;;12.93;6.75;;;13.50;99.90;;;;;;5057282;28;20036;-83
2021/10/09 11:16:29;;;;;;;;;;;13.60;99.90;;;;;;5067346;28;20048;-79
2021/10/09 11:18:54;;;;;;;10.18;7.28;;;13.70;99.90;;;;;;5043105;28;20265;-79
2021/10/09 11:21:21;;;;;;;12.40;7.30;;;13.80;99.90;;;;;;5054659;28;20053;-82
2021/10/09 11:23:56;;;;;;;12.48;5.90;;;13.80;99.90;;;;;;5067213;28;20048;-84
2021/10/09 11:26:22;;;;;;;14.10;6.88;;;13.80;99.90;;;;;;5053944;28;20045;-80
2021/10/09 11:29:03;;;;;;;9.80;5.40;;;13.80;99.90;;;;;;5068251;28;20094;-81
2021/10/09 11:31:29;;;;;;;9.20;6.65;;;13.90;99.90;;;;;;5071275;28;20117;-79
2021/10/09 11:33:56;;;;;;;16.48;6.97;;;13.90;99.90;;;;;;5058481;28;20437;-79
2021/10/09 11:36:22;;;;;;;16.88;6.63;;;13.90;99.90;;;;;;5055078;28;20045;-80
2021/10/09 11:39:11;;;;;;;11.25;5.05;;;13.90;99.90;;;;;;5061585;28;20072;-81
2021/10/09 11:41:38;;;;;;;7.13;4.90;;;13.90;99.90;;;;;;5056690;28;20508;-84
2021/10/09 11:44:24;;;;;;;9.40;5.90;;;13.90;99.90;;;;;;5066826;28;20481;-81
2021/10/09 11:53:33;;;;;;;12.02;5.78;;;14.00;99.90;;;;;;5039279;28;20076;-83
2021/10/09 11:55:56;;;;;;;11.02;5.30;;;14.10;99.90;;;;;;5068187;28;20568;-80
2021/10/09 11:58:22;;;;;;;12.18;5.20;;;14.20;99.90;;;;;;5068308;28;20053;-82
2021/10/09 12:00:53;;;;;;;8.18;4.88;;;14.30;99.90;;;;;;5039498;28;20097;-81
2021/10/09 12:03:35;;;;;;;11.55;5.82;;;14.40;99.90;;;;;;5050009;28;20045;-81
2021/10/09 12:06:08;;;;;;;14.15;5.13;;;14.40;99.90;;;;;;5051707;28;20045;-81
2021/10/09 12:08:41;;;;;;;6.85;4.68;;;14.50;99.90;;;;;;5052991;28;20044;-79
2021/10/09 12:11:19;;;;;;;9.15;5.90;;;14.50;99.90;;;;;;5055725;28;20147;-85
2021/10/09 12:13:58;;;;;;;8.93;6.00;;;14.60;99.90;;;;;;5061142;28;20477;-82
2021/10/09 12:16:35;;;;;;;9.63;5.47;;;14.60;99.90;;;;;;5066603;28;20482;-81
2021/10/09 12:19:03;;;;;;;9.07;5.40;;;14.60;99.90;;;;;;5062769;28;20406;-81
2021/10/09 12:21:52;;;;;;;7.10;5.22;;;14.80;99.90;;;;;;5065837;28;20045;-84
2021/10/09 12:24:21;;;;;;;8.35;5.15;;;14.90;99.90;;;;;;5046402;28;20051;-81
2021/10/09 12:27:03;;;;;;;7.68;4.43;;;14.90;99.90;;;;;;5055956;28;20460;-82
2021/10/09 12:29:30;;;;;;;11.00;4.90;;;15.00;99.90;;;;;;5061374;28;20075;-78
2021/10/09 12:32:14;;;;;;;14.32;6.65;;;15.00;99.90;;;;;;5060168;28;20044;-79
2021/10/09 12:34:40;;;;;;;8.77;5.32;;;15.10;99.90;;;;;;5057240;28;20045;-80
2021/10/09 12:37:08;;;;;;;;;;;15.20;99.90;;;;;;5071632;28;20048;-80
2021/10/09 12:39:34;;;;;;;7.85;5.15;;;15.30;99.90;;;;;;5058179;28;19959;-82
2021/10/09 12:42:00;;;;;;;9.18;5.68;;;15.30;99.90;;;;;;5046276;28;20133;-82
2021/10/09 12:44:26;;;;;;;7.00;5.20;;;15.40;99.90;;;;;;5066186;28;20060;-82
2021/10/09 12:46:52;;;;;;;;;;;15.50;99.90;;;;;;5060615;28;20041;-83
2021/10/09 12:49:17;;;;;;;8.98;5.30;;;15.50;99.90;;;;;;5056751;28;19916;-82
2021/10/09 12:51:43;;;;;;;8.75;4.47;;;15.60;99.90;;;;;;5069978;28;20044;-79
2021/10/09 12:54:10;;;;;;;14.45;4.25;;;15.70;99.90;;;;;;5053541;28;20509;-82
2021/10/09 12:56:35;;;;;;;;;;;15.80;99.90;;;;;;5054830;28;20044;-84
2021/10/09 12:59:02;;;;;;;6.35;4.78;;;15.90;99.90;;;;;;5068336;28;19917;-78
2021/10/09 13:01:29;;;;;;;8.00;4.63;;;16.10;99.90;;;;;;5054768;28;20079;-81
2021/10/09 13:03:55;;;;;;;7.63;5.15;;;16.20;99.90;;;;;;5058322;28;20061;-84
2021/10/09 13:06:21;;;;;;;21.90;5.97;;;16.30;99.90;;;;;;5041281;28;20036;-81
2021/10/09 13:08:47;;;;;;;7.00;4.35;;;16.30;99.90;;;;;;5074597;28;20041;-82
2021/10/09 13:11:13;;;;;;;;;;;16.40;99.90;;;;;;5058703;28;20045;-80
2021/10/09 13:13:39;;;;;;;5.55;4.18;;;16.50;99.90;;;;;;5074202;28;19931;-80
2021/10/09 13:16:05;;;;;;;;;;;16.60;99.90;;;;;;5067338;28;20440;-81
2021/10/09 13:18:31;;;;;;;7.13;4.78;;;16.80;99.90;;;;;;5048465;28;20268;-81
2021/10/09 13:20:57;;;;;;;;;;;16.90;99.90;;;;;;5058803;28;20131;-86
2021/10/09 13:23:23;;;;;;;9.02;5.30;;;17.10;99.90;;;;;;5073580;28;19920;-84
2021/10/09 13:25:48;;;;;;;12.30;5.38;;;17.50;99.90;;;;;;5048393;28;20048;-79
2021/10/09 13:28:14;;;;;;;;;;;18.20;99.90;;;;;;5073992;28;20044;-81
2021/10/09 13:30:40;;;;;;;8.35;4.55;;;18.90;99.90;;;;;;5060956;28;20093;-83
2021/10/09 13:33:06;;;;;;;7.10;5.07;;;19.50;99.90;;;;;;5077714;28;20115;-82
2021/10/09 13:35:32;;;;;;;7.15;4.95;;;20.10;99.90;;;;;;5070272;28;20486;-82
2021/10/09 13:38:00;;;;;;;5.57;4.18;;;20.70;99.90;;;;;;5070476;28;20060;-84
2021/10/09 13:40:26;;;;;;;10.88;4.25;;;21.00;99.90;;;;;;5053361;28;20056;-83
2021/10/09 13:42:52;;;;;;;6.38;4.40;;;21.30;99.90;;;;;;5064067;28;20045;-79
2021/10/09 13:45:18;;;;;;;6.70;4.35;;;21.60;99.90;;;;;;5068955;28;20041;-82
2021/10/09 13:47:44;;;;;;;6.38;3.60;;;21.70;99.90;;;;;;5064070;28;20041;-81
2021/10/09 13:50:12;;;;;;;10.50;4.07;;;21.80;99.90;;;;;;5067625;28;20047;-82
2021/10/09 13:52:38;;;;;;;8.48;4.50;;;22.00;99.90;;;;;;5064520;28;20059;-81
2021/10/09 13:55:05;;;;;;;7.72;4.82;;;22.20;99.90;;;;;;5060282;28;20441;-85
2021/10/09 13:57:31;;;;;;;10.05;4.38;;;22.40;99.90;;;;;;5053939;28;20500;-84
2021/10/09 13:59:57;;;;;;;9.55;4.20;;;22.50;99.90;;;;;;5067662;28;20053;-82
2021/10/09 14:02:24;;;;;;;5.85;4.15;;;22.60;99.90;;;;;;5067043;28;20159;-82
2021/10/09 14:04:50;;;;;;;5.53;3.28;;;22.80;99.90;;;;;;5046015;28;20041;-82
2021/10/09 14:07:15;;;;;;;5.85;3.63;;;22.90;99.90;;;;;;5059053;28;20381;-83
2021/10/09 14:09:41;;;;;;;5.60;3.25;;;23.10;99.90;;;;;;5030380;28;20125;-81
2021/10/09 14:12:07;;;;;;;5.68;3.78;;;23.00;99.90;;;;;;5054062;28;20063;-83
2021/10/09 14:14:33;;;;;;;9.77;4.85;;;23.00;99.90;;;;;;5055412;28;20486;-80
2021/10/09 14:16:58;;;;;;;8.48;4.40;;;23.10;99.90;;;;;;5066321;28;20053;-83
2021/10/09 14:19:24;;;;;;;5.80;3.90;;;23.20;99.90;;;;;;5056103;28;20045;-83
2021/10/09 14:21:50;;;;;;;5.15;3.90;;;23.20;99.90;;;;;;5067391;28;20072;-80
2021/10/09 14:24:17;;;;;;;4.88;3.80;;;23.00;99.90;;;;;;5063221;28;20116;-81
2021/10/09 14:26:43;;;;;;;5.40;4.10;;;22.80;99.90;;;;;;5059430;28;20049;-82
2021/10/09 14:29:09;;;;;;;4.35;3.25;;;22.80;99.90;;;;;;5070474;28;20123;-82
2021/10/09 14:31:34;;;;;;;8.20;3.70;;;22.70;99.90;;;;;;5073318;28;20048;-81
2021/10/09 14:34:03;;;;;;;10.95;3.55;;;22.60;99.90;;;;;;5041025;28;20045;-80
2021/10/09 14:36:29;;;;;;;4.68;3.00;;;22.70;99.90;;;;;;5056955;28;20048;-81
2021/10/09 14:38:55;;;;;;;7.40;5.03;;;22.80;99.90;;;;;;5053152;28;20046;-80
2021/10/09 14:41:21;;;;;;;6.60;4.03;;;22.70;99.90;;;;;;5056688;28;20051;-83
2021/10/09 14:43:47;;;;;;;7.07;4.25;;;22.70;99.90;;;;;;5073010;28;20393;-82
2021/10/09 14:48:52;;;;;;;4.55;3.53;;;22.90;99.90;;;;;;5072970;28;20041;-82
2021/10/09 15:02:34;;;;;;;4.43;3.35;;;22.90;99.90;;;;;;5068790;28;20052;-81
2021/10/09 15:18:24;;;;;;;5.82;4.05;;;22.40;99.90;;;;;;5065043;28;20045;-86
2021/10/09 15:20:51;;;;;;;6.88;4.50;;;22.20;99.90;;;;;;5070784;28;20044;-83
2021/10/09 15:23:19;;;;;;;6.50;3.97;;;22.20;99.90;;;;;;5063337;28;20098;-80
2021/10/09 15:25:45;;;;;;;5.68;3.47;;;22.20;99.90;;;;;;5061962;28;20052;-81
2021/10/09 15:28:15;;;;;;;5.32;3.75;;;22.10;99.90;;;;;;5038112;28;20045;-80
2021/10/09 15:30:41;;;;;;;7.88;3.92;;;21.90;99.90;;;;;;5068197;28;20037;-83